TimeEDT,TemperatureF,Dew PointF,Humidity,Sea Level PressureIn,VisibilityMPH,Wind Direction,Wind SpeedMPH,Gust SpeedMPH,PrecipitationIn,Events,Conditions,WindDirDegrees,DateUTC
12:53 AM,71.1,57.0,61,30.16,10.0,NNE,3.5,-,N/A,,Clear,30,2013-05-15 04:53:00
1:53 AM,66.0,57.0,73,30.14,10.0,NNE,3.5,-,N/A,,Clear,30,2013-05-15 05:53:00
2:53 AM,68.0,57.9,70,30.14,10.0,NNE,4.6,-,N/A,,Clear,20,2013-05-15 06:53:00
3:53 AM,68.0,59.0,73,30.13,10.0,NNE,5.8,-,N/A,,Clear,20,2013-05-15 07:53:00
4:53 AM,68.0,59.0,73,30.13,10.0,North,4.6,-,N/A,,Partly Cloudy,10,2013-05-15 08:53:00
5:53 AM,69.1,61.0,75,30.14,10.0,NNE,5.8,-,N/A,,Overcast,20,2013-05-15 09:53:00
6:53 AM,66.9,61.0,81,30.14,10.0,Calm,Calm,-,N/A,,Clear,0,2013-05-15 10:53:00
7:53 AM,73.0,62.1,68,30.15,10.0,NE,4.6,-,N/A,,Clear,50,2013-05-15 11:53:00
8:53 AM,78.1,59.0,52,30.17,10.0,East,11.5,-,N/A,,Clear,80,2013-05-15 12:53:00
9:53 AM,80.1,59.0,48,30.18,10.0,ENE,15.0,-,N/A,,Partly Cloudy,70,2013-05-15 13:53:00
10:53 AM,80.1,59.0,48,30.18,10.0,ESE,13.8,-,0.00,,Partly Cloudy,110,2013-05-15 14:53:00
11:53 AM,81.0,60.1,49,30.18,10.0,ENE,10.4,-,N/A,,Mostly Cloudy,60,2013-05-15 15:53:00
12:53 PM,82.0,60.1,47,30.17,10.0,ENE,18.4,25.3,N/A,,Mostly Cloudy,70,2013-05-15 16:53:00
1:53 PM,82.0,57.9,44,30.16,10.0,East,17.3,25.3,N/A,,Mostly Cloudy,100,2013-05-15 17:53:00
2:53 PM,82.9,57.0,41,30.14,10.0,East,16.1,24.2,N/A,,Partly Cloudy,90,2013-05-15 18:53:00
3:53 PM,82.9,57.9,42,30.12,10.0,East,17.3,24.2,N/A,,Scattered Clouds,100,2013-05-15 19:53:00
4:53 PM,81.0,60.1,49,30.10,10.0,East,15.0,-,N/A,,Scattered Clouds,80,2013-05-15 20:53:00
5:53 PM,81.0,60.1,49,30.11,10.0,East,15.0,21.9,N/A,,Partly Cloudy,90,2013-05-15 21:53:00
6:53 PM,78.1,62.1,58,30.10,10.0,East,16.1,-,N/A,,Mostly Cloudy,100,2013-05-15 22:53:00
7:53 PM,77.0,61.0,58,30.10,10.0,East,15.0,21.9,N/A,,Overcast,100,2013-05-15 23:53:00
8:53 PM,75.9,60.1,58,30.11,10.0,East,13.8,-,N/A,,Mostly Cloudy,100,2013-05-16 00:53:00
9:53 PM,73.9,60.1,62,30.12,10.0,East,10.4,-,N/A,,Clear,100,2013-05-16 01:53:00
10:53 PM,72.0,59.0,64,30.13,10.0,East,9.2,-,N/A,,Clear,90,2013-05-16 02:53:00
11:53 PM,71.1,59.0,66,30.12,10.0,East,9.2,-,N/A,,Clear,90,2013-05-16 03:53:00